Time;durP1;ratioP1;P1;durP2;ratioP2;P2;SDS_P1;SDS_P2;PMS_P1;PMS_P2;Temp;Humidity;BMP_temperature;BMP_pressure;BME280_temperature;BME280_humidity;BME280_pressure;Samples;Min_cycle;Max_cycle;Signal;HPM_P1;HPM_P2
2021/01/28 00:00:30;;;;;;;13.20;10.43;;;;;;;-2.00;78.71;97731.97;1797849;79;21000;-68
2021/01/28 00:02:58;;;;;;;13.72;9.35;;;;;;;-2.00;78.78;97728.48;1797929;79;20997;-67
2021/01/28 00:05:29;;;;;;;15.32;12.00;;;;;;;-2.00;78.73;97721.91;1797965;79;20957;-67
2021/01/28 00:07:57;;;;;;;13.38;9.98;;;;;;;-1.99;78.77;97726.24;1814989;79;20983;-67
2021/01/28 00:10:26;;;;;;;15.55;12.82;;;;;;;-2.00;78.70;97731.97;1815650;79;22265;-67
2021/01/28 00:12:53;;;;;;;12.43;10.30;;;;;;;-2.00;78.66;97736.38;1815512;79;20917;-67
2021/01/28 00:15:23;;;;;;;13.62;10.72;;;;;;;-2.03;78.62;97737.78;1815571;79;20924;-67
2021/01/28 00:17:51;;;;;;;11.55;9.10;;;;;;;-2.01;78.60;97739.91;1815511;79;20873;-67
2021/01/28 00:20:30;;;;;;;16.15;11.70;;;;;;;-2.03;78.66;97729.43;1815587;79;20916;-67
2021/01/28 00:22:58;;;;;;;12.53;10.10;;;;;;;-2.01;78.62;97737.28;1815518;79;21326;-68
2021/01/28 00:25:26;;;;;;;14.80;11.15;;;;;;;-2.00;78.70;97741.64;1815438;79;21000;-67
2021/01/28 00:27:54;;;;;;;15.45;10.65;;;;;;;-2.00;78.70;97741.64;1815436;79;20995;-67
2021/01/28 00:30:31;;;;;;;14.33;11.08;;;;;;;-1.99;78.75;97736.77;1815503;79;20928;-67
2021/01/28 00:32:59;;;;;;;12.33;9.03;;;;;;;-1.99;78.76;97740.72;1815517;79;20984;-67
2021/01/28 00:35:36;;;;;;;14.23;10.20;;;;;;;-2.01;78.69;97730.23;1815604;79;22264;-67
2021/01/28 00:38:06;;;;;;;14.33;9.80;;;;;;;-2.03;78.50;97736.47;1815543;79;21350;-67
2021/01/28 00:40:34;;;;;;;13.72;9.98;;;;;;;-2.01;78.53;97738.59;1815537;79;20975;-67
2021/01/28 00:43:02;;;;;;;14.40;11.70;;;;;;;-2.01;78.62;97742.54;1815417;79;20896;-67
2021/01/28 00:45:31;;;;;;;15.25;10.95;;;;;;;-2.01;78.63;97737.28;1815491;79;20896;-67
2021/01/28 00:48:00;;;;;;;12.23;10.78;;;;;;;-2.00;78.62;97739.87;1815526;79;21360;-67
2021/01/28 00:50:31;;;;;;;13.45;10.50;;;;;;;-2.00;78.60;97741.18;1815432;79;20963;-67
2021/01/28 00:52:58;;;;;;;11.38;9.55;;;;;;;-1.97;78.62;97740.24;1815433;79;21401;-67
2021/01/28 00:55:28;;;;;;;16.32;11.12;;;;;;;-1.97;78.51;97732.34;1815463;79;20953;-67
2021/01/28 00:57:59;;;;;;;13.45;10.65;;;;;;;-1.98;78.60;97725.34;1814945;79;20931;-67
2021/01/28 01:00:37;;;;;;;12.58;9.30;;;;;;;-2.00;78.64;97723.22;1815578;79;21413;-67
2021/01/28 01:03:10;;;;;;;15.23;10.43;;;;;;;-2.00;78.48;97723.22;1815379;79;20968;-67
2021/01/28 01:05:39;;;;;;;11.97;10.03;;;;;;;-2.01;78.50;97721.02;1815619;79;20920;-67
2021/01/28 01:08:09;;;;;;;11.45;9.25;;;;;;;-2.03;78.58;97720.68;1805567;77;21003;-68
2021/01/28 01:10:56;;;;;;;14.58;11.18;;;;;;;-2.04;78.47;97726.38;1804435;79;21339;-68
2021/01/28 01:13:27;;;;;;;9.48;8.48;;;;;;;-2.04;78.45;97722.89;1804359;79;21327;-67
2021/01/28 01:15:56;;;;;;;11.83;9.23;;;;;;;-2.04;78.54;97728.16;1802533;79;20991;-67
2021/01/28 01:18:28;;;;;;;13.28;10.65;;;;;;;-2.04;78.41;97718.95;1804328;79;20996;-67
2021/01/28 01:20:55;;;;;;;12.28;9.70;;;;;;;-2.06;78.38;97714.19;1804326;78;20972;-67
2021/01/28 01:23:24;;;;;;;12.15;10.68;;;;;;;-2.06;78.21;97722.09;1804353;79;21028;-67
2021/01/28 01:26:11;;;;;;;11.48;10.20;;;;;;;-2.05;78.23;97718.53;1803381;79;21391;-67
2021/01/28 01:28:38;;;;;;;12.03;9.03;;;;;;;-2.08;78.17;97725.19;1804319;79;20937;-67
2021/01/28 01:31:08;;;;;;;12.88;9.75;;;;;;;-2.08;78.16;97725.19;1804304;79;21457;-67
2021/01/28 01:33:37;;;;;;;13.38;10.05;;;;;;;-2.08;78.11;97722.56;1804302;79;21003;-67
2021/01/28 01:36:07;;;;;;;14.00;10.05;;;;;;;-2.06;78.07;97718.14;1804261;79;20948;-68
2021/01/28 01:38:38;;;;;;;15.28;10.13;;;;;;;-2.05;78.01;97719.84;1803558;79;21421;-68
2021/01/28 01:41:06;;;;;;;11.08;9.48;;;;;;;-2.06;77.81;97721.63;1804254;79;20968;-68
2021/01/28 01:43:34;;;;;;;12.65;9.53;;;;;;;-2.06;77.84;97715.51;1804345;79;20901;-68
2021/01/28 01:46:06;;;;;;;11.88;9.05;;;;;;;-2.07;77.82;97721.67;1804308;79;20912;-66
2021/01/28 01:48:45;;;;;;;11.45;8.70;;;;;;;-2.05;77.88;97717.20;1804481;79;21031;-66
2021/01/28 01:51:23;;;;;;;8.50;7.53;;;;;;;-2.05;77.82;97717.20;1804110;79;21195;-67
2021/01/28 01:54:02;;;;;;;10.32;8.73;;;;;;;-2.06;77.82;97720.77;1804269;79;20884;-67
2021/01/28 01:56:35;;;;;;;11.78;9.48;;;;;;;-2.05;77.80;97719.84;1802069;79;20932;-67
2021/01/28 01:59:08;;;;;;;10.17;7.63;;;;;;;-2.06;77.83;97716.36;1804575;79;20896;-67
2021/01/28 02:02:14;;;;;;;13.05;10.60;;;;;;;-2.05;77.70;97718.53;1804307;79;20960;-67
2021/01/28 02:05:06;;;;;;;10.98;8.95;;;;;;;-2.08;77.81;97713.35;1804486;79;21418;-68
2021/01/28 02:07:53;;;;;;;11.40;8.38;;;;;;;-2.08;77.96;97715.98;1800051;78;20948;-66
2021/01/28 02:10:22;;;;;;;21.02;10.80;;;;;;;-2.06;77.96;97710.25;1795564;79;20913;-69
2021/01/28 02:13:08;;;;;;;11.50;8.50;;;;;;;-2.06;78.02;97709.78;1794837;79;20944;-67
2021/01/28 02:15:37;;;;;;;12.70;9.33;;;;;;;-2.07;78.15;97708.51;1797927;79;21413;-67
2021/01/28 02:18:06;;;;;;;13.62;10.25;;;;;;;-2.06;78.06;97707.61;1797898;79;22259;-67
2021/01/28 02:20:55;;;;;;;12.47;8.73;;;;;;;-2.05;78.11;97705.37;1797000;79;21374;-67
2021/01/28 02:24:18;;;;;;;10.65;8.95;;;;;;;-2.07;78.06;97702.78;1797621;79;20984;-68
2021/01/28 02:26:47;;;;;;;10.35;8.05;;;;;;;-2.08;78.07;97697.56;1797734;79;20980;-67
2021/01/28 02:29:35;;;;;;;14.18;9.28;;;;;;;-2.09;78.18;97697.17;1797869;79;21027;-67
2021/01/28 02:32:02;;;;;;;12.63;9.05;;;;;;;-2.11;78.21;97691.08;1797790;79;21362;-67
2021/01/28 02:34:34;;;;;;;13.22;8.78;;;;;;;-2.12;78.28;97694.64;1797820;79;20895;-68
2021/01/28 02:37:17;;;;;;;13.78;10.18;;;;;;;-2.11;78.24;97696.34;1775710;79;21004;-68
2021/01/28 02:39:49;;;;;;;15.18;9.90;;;;;;;-2.12;78.30;97695.95;1784236;79;20909;-68
2021/01/28 02:42:31;;;;;;;16.40;10.40;;;;;;;-2.13;78.29;97695.53;1797759;79;20932;-68
2021/01/28 02:45:03;;;;;;;14.58;10.18;;;;;;;-2.12;78.34;97693.32;1797318;79;21133;-68
2021/01/28 02:47:53;;;;;;;12.28;9.58;;;;;;;-2.13;78.46;97695.53;1793027;79;20924;-67
2021/01/28 02:50:33;;;;;;;10.40;9.00;;;;;;;-2.12;78.49;97697.27;1797112;79;20988;-66
2021/01/28 02:53:03;;;;;;;11.05;9.00;;;;;;;-2.10;78.48;97699.39;1797799;79;20901;-67
2021/01/28 02:55:34;;;;;;;14.30;10.28;;;;;;;-2.10;78.53;97699.39;1797943;79;20913;-67
2021/01/28 02:58:03;;;;;;;14.20;10.70;;;;;;;-2.11;78.56;97693.70;1775752;79;22260;-66
2021/01/28 03:00:35;;;;;;;11.75;9.60;;;;;;;-2.11;78.62;97685.81;1796612;79;21043;-67
2021/01/28 03:03:05;;;;;;;10.48;9.03;;;;;;;-2.10;78.53;97695.44;1797917;79;21338;-67
2021/01/28 03:05:41;;;;;;;13.15;10.03;;;;;;;-2.10;78.60;97688.86;1797087;79;20877;-67
2021/01/28 03:08:09;;;;;;;15.10;11.08;;;;;;;-2.10;78.60;97686.23;1808183;79;21047;-67
2021/01/28 03:10:39;;;;;;;15.03;11.08;;;;;;;-2.11;78.57;97688.44;1815405;79;21263;-67
2021/01/28 03:13:09;;;;;;;12.60;10.58;;;;;;;-2.10;78.58;97687.55;1815328;79;20976;-66
2021/01/28 03:15:41;;;;;;;16.60;12.30;;;;;;;-2.09;78.55;97686.66;1814749;79;20889;-66
2021/01/28 03:18:09;;;;;;;14.87;12.15;;;;;;;-2.06;78.51;97690.51;1815386;79;20963;-66
2021/01/28 03:20:38;;;;;;;15.45;10.23;;;;;;;-2.06;78.49;97686.56;1815298;79;20948;-67
2021/01/28 03:23:09;;;;;;;13.90;10.40;;;;;;;-2.04;78.31;97688.68;1813188;79;21347;-67
2021/01/28 03:25:53;;;;;;;14.53;10.82;;;;;;;-2.06;78.12;97686.56;1813790;79;21326;-67
2021/01/28 03:28:21;;;;;;;14.87;12.45;;;;;;;-2.08;78.09;97686.61;1815569;79;20869;-67
2021/01/28 03:30:50;;;;;;;15.08;10.88;;;;;;;-2.06;78.07;97687.41;1815041;79;20916;-67
2021/01/28 03:33:20;;;;;;;13.75;11.08;;;;;;;-2.06;78.04;97681.30;1815551;79;20952;-67
2021/01/28 03:35:50;;;;;;;14.53;11.90;;;;;;;-2.05;78.05;97692.21;1815610;79;21372;-67
2021/01/28 03:38:19;;;;;;;14.58;12.05;;;;;;;-2.06;78.02;97681.30;1815496;79;20987;-67
2021/01/28 03:40:48;;;;;;;16.50;11.97;;;;;;;-2.03;77.92;97689.10;1815426;79;21011;-67
2021/01/28 03:43:15;;;;;;;14.28;11.83;;;;;;;-2.03;77.90;97681.20;1815592;79;20971;-67
2021/01/28 03:45:43;;;;;;;15.00;10.98;;;;;;;-2.04;77.74;97683.42;1815567;79;20920;-67
2021/01/28 03:48:12;;;;;;;16.90;12.18;;;;;;;-2.05;77.56;97689.58;1815499;79;21242;-67
2021/01/28 03:50:42;;;;;;;15.32;10.93;;;;;;;-2.04;77.58;97687.37;1813632;79;20947;-67
2021/01/28 03:53:21;;;;;;;20.05;11.63;;;;;;;-2.05;77.54;97677.73;1807021;78;20940;-67
2021/01/28 03:55:50;;;;;;;11.85;9.85;;;;;;;-2.03;77.35;97681.20;1813475;79;20912;-68
2021/01/28 03:58:19;;;;;;;14.63;11.05;;;;;;;-2.05;77.18;97677.73;1815527;78;20963;-68
2021/01/28 04:00:49;;;;;;;14.28;11.48;;;;;;;-2.04;77.13;97686.05;1812398;79;21336;-67
2021/01/28 04:03:19;;;;;;;16.62;11.40;;;;;;;-2.05;77.13;97681.25;1815462;79;20967;-68
2021/01/28 04:05:55;;;;;;;12.93;10.53;;;;;;;-2.05;77.00;97677.73;1812157;79;21011;-69
2021/01/28 04:08:25;;;;;;;13.38;10.30;;;;;;;-2.04;76.96;97674.20;1804532;79;20999;-66
2021/01/28 04:10:55;;;;;;;14.55;11.45;;;;;;;-2.06;76.91;97669.45;1811218;79;21011;-67
2021/01/28 04:13:22;;;;;;;14.25;9.85;;;;;;;-2.07;76.84;97670.35;1815554;79;21185;-67
2021/01/28 04:15:51;;;;;;;17.87;12.93;;;;;;;-2.07;76.80;97675.16;1815464;79;20936;-68
2021/01/28 04:18:21;;;;;;;16.80;11.70;;;;;;;-2.08;76.81;97668.19;1815471;79;20927;-67
2021/01/28 04:20:53;;;;;;;15.97;12.97;;;;;;;-2.06;76.81;97670.77;1813387;79;20912;-67
2021/01/28 04:23:22;;;;;;;17.87;13.00;;;;;;;-2.07;76.73;97664.62;1815541;79;21599;-67
2021/01/28 04:25:51;;;;;;;19.75;12.88;;;;;;;-2.05;76.64;97661.95;1813247;79;21405;-67
2021/01/28 04:28:19;;;;;;;16.02;11.35;;;;;;;-2.05;76.54;97660.63;1815437;79;20968;-67
2021/01/28 04:30:53;;;;;;;17.87;12.10;;;;;;;-2.05;76.37;97661.95;1813041;79;20928;-68
2021/01/28 04:33:21;;;;;;;15.90;12.78;;;;;;;-2.05;76.36;97663.27;1815476;79;20944;-67
2021/01/28 04:35:56;;;;;;;19.62;12.05;;;;;;;-2.06;76.21;97658.47;1814135;79;20968;-68
2021/01/28 04:38:24;;;;;;;17.57;11.22;;;;;;;-2.03;76.24;97668.05;1815480;79;21346;-68
2021/01/28 04:41:24;;;;;;;14.63;10.90;;;;;;;-2.04;76.20;97666.31;1814752;79;21603;-68
2021/01/28 04:43:55;;;;;;;16.50;11.65;;;;;;;-2.03;76.14;97665.42;1815470;79;21034;-67
2021/01/28 04:46:43;;;;;;;17.75;12.03;;;;;;;-2.03;76.02;97662.78;1813533;79;21015;-67
2021/01/28 04:49:14;;;;;;;20.92;13.15;;;;;;;-2.05;75.98;97661.95;1804820;78;20904;-67
2021/01/28 04:51:45;;;;;;;17.70;12.58;;;;;;;-2.06;76.11;97662.41;1811044;79;21289;-68
2021/01/28 04:54:30;;;;;;;17.50;12.03;;;;;;;-2.05;76.11;97660.63;1815440;79;20924;-67
2021/01/28 04:57:09;;;;;;;20.62;14.60;;;;;;;-2.08;75.93;97659.41;1815359;78;20971;-67
2021/01/28 04:59:45;;;;;;;15.95;13.18;;;;;;;-2.09;76.04;97653.76;1814533;79;21413;-67
2021/01/28 05:02:18;;;;;;;17.17;13.43;;;;;;;-2.08;76.21;97665.55;1815564;79;20916;-68
2021/01/28 05:04:57;;;;;;;15.48;12.18;;;;;;;-2.08;76.12;97665.55;1782397;79;21471;-67
2021/01/28 05:07:30;;;;;;;19.20;13.77;;;;;;;-2.06;76.04;97664.19;1812962;79;20971;-68
2021/01/28 05:10:29;;;;;;;16.25;12.23;;;;;;;-2.09;75.93;97655.08;1790344;80;21385;-69
2021/01/28 05:13:14;;;;;;;20.45;12.00;;;;;;;-2.05;75.99;97661.52;1837141;78;27898;-70
2021/01/28 05:15:51;;;;;;;15.98;11.05;;;;;;;-2.09;75.92;97662.97;1806799;79;20936;-69
2021/01/28 05:18:35;;;;;;;27.85;16.10;;;;;;;-2.07;75.89;97665.09;1779771;79;21212;-68
2021/01/28 05:21:22;;;;;;;19.05;13.25;;;;;;;-2.07;75.84;97662.45;1808780;79;21911;-68
2021/01/28 05:24:14;;;;;;;24.30;15.53;;;;;;;-2.10;75.62;97663.87;1803633;79;20924;-69
2021/01/28 05:26:45;;;;;;;21.27;14.15;;;;;;;-2.12;75.62;97663.06;1809401;79;20924;-69
2021/01/28 05:29:25;;;;;;;19.00;13.25;;;;;;;-2.16;75.66;97664.05;1809637;79;20908;-69
2021/01/28 05:31:58;;;;;;;19.95;13.35;;;;;;;-2.16;75.64;97666.68;1808311;79;21364;-69
2021/01/28 05:34:44;;;;;;;18.00;13.43;;;;;;;-2.17;75.69;97653.98;1809366;79;20999;-69
2021/01/28 05:37:23;;;;;;;16.30;11.55;;;;;;;-2.19;75.80;97656.66;1804894;79;20956;-70
2021/01/28 05:40:23;;;;;;;16.95;12.25;;;;;;;-2.18;75.80;97650.94;1809573;79;20968;-70
2021/01/28 05:42:52;;;;;;;21.68;14.90;;;;;;;-2.20;75.58;97649.67;1808729;79;20940;-68
2021/01/28 05:45:33;;;;;;;20.12;14.53;;;;;;;-2.21;75.64;97651.91;1809559;79;21296;-69
2021/01/28 05:48:29;;;;;;;17.92;13.60;;;;;;;-2.21;75.58;97647.97;1809488;79;20932;-69
2021/01/28 05:51:13;;;;;;;;;;;;;;;-2.21;75.51;97653.23;1795667;79;20960;-69
2021/01/28 05:53:43;;;;;;;17.85;12.47;;;;;;;-2.20;75.53;97650.98;1809516;79;20126;-69
2021/01/28 05:56:15;;;;;;;17.75;11.90;;;;;;;-2.20;75.53;97653.61;1769955;79;20995;-69
2021/01/28 05:59:05;;;;;;;15.25;11.40;;;;;;;-2.21;75.30;97654.55;1778601;79;21426;-69
2021/01/28 06:01:46;;;;;;;18.23;12.93;;;;;;;-2.20;75.20;97658.03;1809492;79;20920;-70
2021/01/28 06:04:39;;;;;;;18.87;12.00;;;;;;;-2.22;75.08;97646.23;1804811;79;20943;-69
2021/01/28 06:07:45;;;;;;;17.05;12.85;;;;;;;-2.24;74.93;97652.44;1808733;79;21341;-69
2021/01/28 06:10:32;;;;;;;20.72;13.65;;;;;;;-2.24;74.85;97644.55;1805118;79;20908;-70
2021/01/28 06:13:43;;;;;;;17.85;12.60;;;;;;;-2.25;74.77;97651.59;1770063;80;21878;-69
2021/01/28 06:16:44;;;;;;;19.42;12.10;;;;;;;-2.27;74.60;97646.83;1769775;80;21004;-70
2021/01/28 06:19:44;;;;;;;18.05;12.23;;;;;;;-2.27;74.44;97648.58;1796261;79;20908;-69
2021/01/28 06:22:53;;;;;;;;;;;;;;;-2.28;74.43;97662.66;1807390;79;20980;-68
2021/01/28 06:25:47;;;;;;;17.85;11.00;;;;;;;-2.30;74.42;97656.56;1800160;79;20131;-70
2021/01/28 06:28:36;;;;;;;20.25;12.93;;;;;;;-2.34;74.26;97659.75;1804464;79;22231;-69
2021/01/28 06:31:33;;;;;;;20.72;11.90;;;;;;;-2.35;74.34;97661.95;1804209;79;20932;-69
2021/01/28 06:34:57;;;;;;;19.75;12.82;;;;;;;-2.35;74.31;97658.02;1804384;78;20993;-70
2021/01/28 06:38:44;;;;;;;18.35;12.68;;;;;;;-2.30;74.15;97653.50;1837020;78;28684;-70
2021/01/28 06:41:26;;;;;;;21.27;11.60;;;;;;;-2.31;74.04;97658.80;1750592;79;20996;-69
2021/01/28 06:44:17;;;;;;;20.65;12.60;;;;;;;-2.30;73.68;97667.97;1807698;79;23518;-69
2021/01/28 06:46:58;;;;;;;15.90;11.18;;;;;;;-2.28;73.72;97660.88;1797324;79;20929;-68
2021/01/28 06:49:57;;;;;;;18.75;12.33;;;;;;;-2.24;73.81;97662.53;1787288;79;21414;-70
2021/01/28 06:52:48;;;;;;;15.70;11.40;;;;;;;-2.22;73.35;97663.33;1809448;79;20994;-69
2021/01/28 06:55:41;;;;;;;17.87;10.80;;;;;;;-2.19;72.92;97665.02;1809024;79;20980;-69
2021/01/28 06:58:49;;;;;;;15.70;9.85;;;;;;;-2.16;72.87;97662.73;1801846;79;21724;-69
2021/01/28 07:01:24;;;;;;;16.10;11.53;;;;;;;-2.15;72.61;97656.11;1809584;79;20947;-69
2021/01/28 07:04:24;;;;;;;14.75;9.88;;;;;;;-2.09;72.79;97661.19;1808408;79;21299;-69
2021/01/28 07:07:18;;;;;;;16.75;9.68;;;;;;;-2.06;72.30;97652.35;1809129;79;21416;-68
2021/01/28 07:10:14;;;;;;;18.12;11.75;;;;;;;-2.02;72.03;97646.06;1809716;79;20879;-69
2021/01/28 07:12:51;;;;;;;14.63;10.48;;;;;;;-1.97;71.97;97638.91;1776897;79;21382;-70
2021/01/28 07:15:38;;;;;;;16.30;9.55;;;;;;;-1.93;71.80;97635.25;1808926;79;21015;-70
2021/01/28 07:18:28;;;;;;;16.10;9.95;;;;;;;-1.89;71.20;97648.73;1809244;79;21026;-69
2021/01/28 07:21:02;;;;;;;12.90;9.38;;;;;;;-1.85;71.11;97649.03;1809541;79;21016;-69
2021/01/28 07:23:38;;;;;;;15.35;9.48;;;;;;;-1.79;70.87;97643.19;1778284;79;20995;-69
2021/01/28 07:26:19;;;;;;;15.60;9.18;;;;;;;-1.76;70.50;97644.41;1809620;79;21342;-68
2021/01/28 07:28:48;;;;;;;11.50;8.73;;;;;;;-1.70;69.80;97648.16;1809509;79;21358;-68
2021/01/28 07:31:42;;;;;;;13.65;9.53;;;;;;;-1.68;69.63;97637.12;1809651;79;21338;-69
2021/01/28 07:34:15;;;;;;;13.85;10.80;;;;;;;-1.63;69.47;97637.81;1809570;79;20988;-71
2021/01/28 07:36:59;;;;;;;12.95;9.80;;;;;;;-1.60;69.13;97636.41;1773203;79;20905;-69
2021/01/28 07:39:38;;;;;;;16.15;10.48;;;;;;;-1.57;68.88;97636.77;1791502;80;21188;-69
2021/01/28 07:42:28;;;;;;;16.87;11.48;;;;;;;-1.54;68.76;97640.16;1810067;79;20984;-70
2021/01/28 07:45:32;;;;;;;16.93;11.55;;;;;;;-1.51;68.89;97634.79;1810170;79;20924;-69
2021/01/28 07:48:27;;;;;;;11.00;8.88;;;;;;;-1.48;68.88;97636.47;1809766;79;20913;-70
2021/01/28 07:51:27;;;;;;;15.32;9.78;;;;;;;-1.41;68.37;97639.75;1809529;79;20937;-69
2021/01/28 07:53:55;;;;;;;15.53;10.32;;;;;;;-1.37;68.45;97634.77;1776481;79;21370;-70
2021/01/28 07:56:44;;;;;;;12.30;9.33;;;;;;;-1.33;68.36;97625.39;1809471;79;20896;-68
2021/01/28 07:59:35;;;;;;;12.10;9.70;;;;;;;-1.28;68.03;97627.88;1809595;78;20909;-70
2021/01/28 08:02:30;;;;;;;15.03;10.05;;;;;;;-1.24;67.45;97634.77;1809536;79;20920;-69
2021/01/28 08:05:08;;;;;;;15.00;10.40;;;;;;;-1.18;67.36;97634.56;1809593;79;20964;-70
2021/01/28 08:07:44;;;;;;;12.95;10.00;;;;;;;-1.14;67.04;97625.63;1809505;79;21192;-71
2021/01/28 08:10:34;;;;;;;11.33;8.93;;;;;;;-1.10;66.76;97631.20;1809495;79;20916;-69
2021/01/28 08:13:10;;;;;;;11.80;8.90;;;;;;;-1.03;66.94;97625.25;1809554;79;20929;-70
2021/01/28 08:15:45;;;;;;;9.95;7.80;;;;;;;-0.93;66.58;97633.25;1782260;79;20996;-70
2021/01/28 08:18:26;;;;;;;13.48;10.72;;;;;;;-0.85;65.79;97625.51;1809556;78;21367;-69
2021/01/28 08:21:24;;;;;;;13.50;8.40;;;;;;;-0.75;65.91;97636.14;1809545;79;21322;-70
2021/01/28 08:23:52;;;;;;;10.78;7.83;;;;;;;-0.66;65.39;97627.02;1809519;79;21295;-70
2021/01/28 08:26:32;;;;;;;13.25;7.22;;;;;;;-0.57;65.41;97628.00;1809489;79;21011;-70
2021/01/28 08:29:19;;;;;;;7.95;6.45;;;;;;;-0.53;65.06;97624.34;1809481;79;20984;-69
2021/01/28 08:31:53;;;;;;;10.60;7.47;;;;;;;-0.49;64.60;97623.33;1809510;79;20980;-69
2021/01/28 08:34:26;;;;;;;13.10;7.78;;;;;;;-0.46;64.68;97624.97;1809671;79;21424;-70
2021/01/28 08:36:58;;;;;;;11.78;8.50;;;;;;;-0.47;64.70;97629.40;1807984;78;20952;-69
2021/01/28 08:39:30;;;;;;;10.78;8.03;;;;;;;-0.45;64.99;97626.23;1775561;79;20940;-70
2021/01/28 08:42:07;;;;;;;9.83;7.33;;;;;;;-0.42;65.24;97627.44;1804495;79;20992;-70
2021/01/28 08:44:35;;;;;;;12.73;8.55;;;;;;;-0.37;65.24;97625.48;1804676;79;20905;-69
2021/01/28 08:47:23;;;;;;;10.82;9.25;;;;;;;-0.32;65.45;97627.09;1804453;79;22411;-71
2021/01/28 08:50:15;;;;;;;11.97;8.60;;;;;;;-0.24;65.64;97632.94;1804365;79;20980;-69
2021/01/28 08:52:44;;;;;;;11.63;9.60;;;;;;;-0.18;65.49;97627.43;1804441;79;21350;-70
2021/01/28 08:55:22;;;;;;;13.05;10.15;;;;;;;-0.09;65.49;97632.36;1804360;79;20937;-69
2021/01/28 08:57:51;;;;;;;13.28;10.10;;;;;;;-0.03;65.64;97637.40;1804242;79;20944;-69
2021/01/28 09:00:21;;;;;;;16.00;9.85;;;;;;;0.03;65.21;97631.00;1804367;79;21410;-69
2021/01/28 09:02:51;;;;;;;14.83;10.50;;;;;;;0.08;65.26;97636.10;1804430;79;20968;-69
2021/01/28 09:05:26;;;;;;;12.30;10.03;;;;;;;0.10;65.24;97635.61;1804388;79;20968;-71
2021/01/28 09:08:01;;;;;;;12.23;8.83;;;;;;;0.10;65.02;97635.61;1804406;79;20916;-71
2021/01/28 09:10:40;;;;;;;14.50;9.88;;;;;;;0.11;65.13;97641.27;1804428;79;20952;-69
2021/01/28 09:13:31;;;;;;;13.78;10.98;;;;;;;0.12;65.50;97641.67;1804386;79;22130;-69
2021/01/28 09:16:13;;;;;;;15.32;11.33;;;;;;;0.10;65.58;97640.89;1804340;79;21405;-71
2021/01/28 09:18:51;;;;;;;12.33;10.38;;;;;;;0.11;66.00;97645.22;1802634;79;20941;-69
2021/01/28 09:21:22;;;;;;;16.52;10.63;;;;;;;0.12;65.61;97645.64;1804407;79;21421;-70
2021/01/28 09:24:25;;;;;;;14.55;11.05;;;;;;;0.16;65.88;97631.41;1804448;79;20983;-69
2021/01/28 09:27:18;;;;;;;17.57;12.15;;;;;;;0.20;65.80;97632.98;1804306;79;21329;-69
2021/01/28 09:29:48;;;;;;;14.98;10.13;;;;;;;0.24;65.76;97630.63;1775619;79;20952;-69
2021/01/28 09:32:27;;;;;;;15.88;11.60;;;;;;;0.25;65.83;97625.72;1804440;79;20952;-69
2021/01/28 09:35:16;;;;;;;12.95;10.50;;;;;;;0.27;65.73;97623.91;1804411;78;20941;-69
2021/01/28 09:38:01;;;;;;;15.03;11.05;;;;;;;0.28;65.90;97620.32;1801284;79;20909;-70
2021/01/28 09:40:37;;;;;;;14.85;11.15;;;;;;;0.28;65.62;97626.92;1797141;79;22283;-69
2021/01/28 09:43:23;;;;;;;13.60;10.38;;;;;;;0.26;65.96;97615.57;1797837;79;20925;-69
2021/01/28 09:46:19;;;;;;;17.30;11.57;;;;;;;0.28;66.26;97614.19;1780468;79;20949;-68
2021/01/28 09:48:50;;;;;;;15.35;11.25;;;;;;;0.29;66.37;97608.84;1797811;79;21023;-69
2021/01/28 09:51:32;;;;;;;14.10;10.82;;;;;;;0.32;66.33;97607.87;1797991;79;21002;-69
2021/01/28 09:54:16;;;;;;;14.13;12.03;;;;;;;0.33;66.20;97611.77;1797862;79;21200;-70
2021/01/28 09:56:43;;;;;;;16.07;10.63;;;;;;;0.34;66.37;97612.15;1798009;79;20941;-70
2021/01/28 09:59:14;;;;;;;18.90;12.33;;;;;;;0.37;66.36;97605.05;1797819;79;20925;-71
2021/01/28 10:01:43;;;;;;;18.15;12.43;;;;;;;0.39;66.30;97609.80;1797828;79;20972;-70
2021/01/28 10:04:12;;;;;;;13.25;10.23;;;;;;;0.40;66.31;97604.92;1797907;79;21422;-68
2021/01/28 10:06:41;;;;;;;16.02;12.93;;;;;;;0.41;66.11;97597.38;1797844;79;21237;-71
2021/01/28 10:09:09;;;;;;;18.92;12.33;;;;;;;0.44;66.12;97595.92;1797764;79;21422;-70
2021/01/28 10:11:37;;;;;;;16.70;12.18;;;;;;;0.43;65.83;97594.23;1797845;79;21016;-70
2021/01/28 10:14:05;;;;;;;17.20;12.60;;;;;;;0.48;65.88;97584.31;1775859;79;20928;-68
2021/01/28 10:16:34;;;;;;;15.90;11.08;;;;;;;0.52;65.94;97581.92;1797799;79;20941;-71
2021/01/28 10:19:01;;;;;;;15.58;11.63;;;;;;;0.61;65.63;97577.58;1797829;79;21428;-70
2021/01/28 10:21:31;;;;;;;17.82;13.40;;;;;;;0.65;65.35;97579.17;1797823;79;21410;-69
2021/01/28 10:23:59;;;;;;;16.37;12.63;;;;;;;0.68;65.21;97571.12;1797835;79;20989;-71
2021/01/28 10:26:28;;;;;;;13.28;9.78;;;;;;;0.72;64.96;97567.40;1797829;79;20917;-71
2021/01/28 10:28:57;;;;;;;15.32;10.75;;;;;;;0.76;64.32;97565.95;1797848;79;21000;-72
2021/01/28 10:31:25;;;;;;;13.35;8.53;;;;;;;0.75;62.08;97557.17;1797808;79;22453;-70
2021/01/28 10:33:53;;;;;;;11.20;9.60;;;;;;;0.77;61.67;97555.78;1797868;79;21359;-71
2021/01/28 10:36:21;;;;;;;13.38;8.48;;;;;;;0.76;60.57;97551.41;1797808;79;20957;-71
2021/01/28 10:38:49;;;;;;;12.28;8.08;;;;;;;0.71;60.26;97547.20;1797726;79;20988;-71
2021/01/28 10:41:17;;;;;;;10.98;8.38;;;;;;;0.68;59.32;97541.20;1797878;79;20901;-70
2021/01/28 10:43:45;;;;;;;11.30;7.28;;;;;;;0.67;59.07;97536.83;1797845;79;21185;-70
2021/01/28 10:46:12;;;;;;;8.23;6.90;;;;;;;0.62;59.18;97540.98;1797774;79;20882;-69
2021/01/28 10:48:40;;;;;;;10.68;7.37;;;;;;;0.62;58.59;97536.17;1797773;79;20933;-70
2021/01/28 10:51:09;;;;;;;10.63;8.03;;;;;;;0.60;59.01;97529.63;1797846;79;20965;-70
2021/01/28 10:53:37;;;;;;;10.25;9.10;;;;;;;0.61;58.82;97531.80;1797832;79;21008;-69
2021/01/28 10:56:07;;;;;;;12.30;8.83;;;;;;;0.60;58.92;97526.98;1797591;79;21426;-70
2021/01/28 10:58:35;;;;;;;13.08;9.25;;;;;;;0.60;58.71;97519.50;1797769;79;20921;-69
2021/01/28 11:01:04;;;;;;;11.45;9.48;;;;;;;0.60;58.86;97510.25;1797860;79;20940;-70
2021/01/28 11:03:35;;;;;;;14.83;9.00;;;;;;;0.60;59.35;97508.93;1797671;79;20929;-69
2021/01/28 11:06:03;;;;;;;9.73;7.35;;;;;;;0.61;59.09;97504.91;1797857;79;20901;-69
2021/01/28 11:08:30;;;;;;;9.40;7.42;;;;;;;0.64;58.72;97510.05;1797782;79;21194;-70
2021/01/28 11:10:59;;;;;;;10.15;6.92;;;;;;;0.64;57.39;97496.84;1797761;79;20963;-70
2021/01/28 11:13:27;;;;;;;7.75;5.55;;;;;;;0.64;56.44;97494.20;1797848;79;21020;-70
2021/01/28 11:15:55;;;;;;;10.75;6.50;;;;;;;0.60;55.50;97493.95;1797777;79;20909;-69
2021/01/28 11:18:25;;;;;;;8.03;6.17;;;;;;;0.62;55.47;97478.03;1797794;79;20913;-69
2021/01/28 11:20:53;;;;;;;6.40;5.25;;;;;;;0.64;55.34;97479.66;1797862;79;21362;-69
2021/01/28 11:23:22;;;;;;;8.80;5.62;;;;;;;0.66;55.51;97471.23;1797880;79;21405;-69
2021/01/28 11:25:49;;;;;;;4.92;3.85;;;;;;;0.68;55.37;97470.69;1797917;79;20992;-70
2021/01/28 11:28:17;;;;;;;7.40;5.20;;;;;;;0.71;54.91;97473.19;1797872;79;21000;-69
2021/01/28 11:30:46;;;;;;;6.97;4.92;;;;;;;0.70;54.23;97464.86;1798107;79;21287;-69
2021/01/28 11:33:13;;;;;;;5.95;4.85;;;;;;;0.71;54.65;97467.06;1797978;79;21371;-70
2021/01/28 11:35:42;;;;;;;7.22;5.03;;;;;;;0.72;54.70;97461.67;1797950;79;20998;-71
2021/01/28 11:38:10;;;;;;;6.70;5.47;;;;;;;0.76;55.07;97460.22;1797911;79;20961;-69
2021/01/28 11:40:37;;;;;;;7.78;6.03;;;;;;;0.80;55.47;97465.77;1797907;79;21024;-69
2021/01/28 11:43:07;;;;;;;8.03;5.75;;;;;;;0.86;55.81;97457.09;1797967;79;20929;-70
2021/01/28 11:45:35;;;;;;;6.15;4.95;;;;;;;0.91;54.17;97458.20;1797931;79;21354;-70
2021/01/28 11:48:06;;;;;;;7.05;5.35;;;;;;;0.99;54.04;97461.83;1797807;79;20921;-70
2021/01/28 11:50:36;;;;;;;5.75;4.67;;;;;;;1.06;54.01;97452.70;1797968;79;20917;-71
2021/01/28 11:53:04;;;;;;;4.30;3.90;;;;;;;1.12;53.62;97448.89;1797880;79;21000;-71
2021/01/28 11:55:31;;;;;;;6.28;3.95;;;;;;;1.22;53.50;97450.19;1797951;79;20921;-71
2021/01/28 11:57:59;;;;;;;6.10;4.97;;;;;;;1.24;52.62;97435.09;1797941;79;22283;-69
2021/01/28 12:00:29;;;;;;;5.20;4.33;;;;;;;1.31;53.18;97429.92;1797884;79;20949;-71
2021/01/28 12:02:58;;;;;;;6.12;4.22;;;;;;;1.35;52.75;97430.15;1797840;79;21362;-71
2021/01/28 12:05:30;;;;;;;7.53;4.85;;;;;;;1.36;52.81;97425.26;1797916;79;21020;-71
2021/01/28 12:08:00;;;;;;;6.05;4.30;;;;;;;1.33;52.69;97420.59;1797907;79;21031;-73